sensor_id;sensor_type;location;lat;lon;timestamp;P1;durP1;ratioP1;P2;durP2;ratioP2
70457;SDS011;57919;56.194;95.716;2024-02-23T00:08:49;15.70;;;14.10;;
70457;SDS011;57919;56.194;95.716;2024-02-23T00:18:51;14.50;;;8.45;;
70457;SDS011;57919;56.194;95.716;2024-02-23T00:28:54;24.47;;;19.23;;
70457;SDS011;57919;56.194;95.716;2024-02-23T00:38:56;30.60;;;8.27;;
70457;SDS011;57919;56.194;95.716;2024-02-23T00:48:58;7.00;;;6.30;;
70457;SDS011;57919;56.194;95.716;2024-02-23T00:58:59;12.20;;;9.27;;
70457;SDS011;57919;56.194;95.716;2024-02-23T01:09:01;43.07;;;34.47;;
70457;SDS011;57919;56.194;95.716;2024-02-23T01:19:05;31.77;;;25.77;;
70457;SDS011;57919;56.194;95.716;2024-02-23T01:29:07;60.22;;;31.52;;
70457;SDS011;57919;56.194;95.716;2024-02-23T01:39:09;39.17;;;25.53;;
70457;SDS011;57919;56.194;95.716;2024-02-23T01:49:12;23.17;;;16.73;;
70457;SDS011;57919;56.194;95.716;2024-02-23T01:59:15;16.73;;;15.05;;
70457;SDS011;57919;56.194;95.716;2024-02-23T02:09:18;28.50;;;17.70;;
70457;SDS011;57919;56.194;95.716;2024-02-23T02:19:20;20.70;;;14.73;;
70457;SDS011;57919;56.194;95.716;2024-02-23T02:29:22;18.00;;;10.63;;
70457;SDS011;57919;56.194;95.716;2024-02-23T02:39:24;10.15;;;9.18;;
70457;SDS011;57919;56.194;95.716;2024-02-23T02:49:26;22.30;;;16.07;;
70457;SDS011;57919;56.194;95.716;2024-02-23T02:59:27;41.10;;;14.47;;
70457;SDS011;57919;56.194;95.716;2024-02-23T03:09:29;20.73;;;16.83;;
70457;SDS011;57919;56.194;95.716;2024-02-23T03:19:31;35.60;;;13.00;;
70457;SDS011;57919;56.194;95.716;2024-02-23T03:29:33;18.80;;;8.97;;
70457;SDS011;57919;56.194;95.716;2024-02-23T03:39:35;10.93;;;4.82;;
70457;SDS011;57919;56.194;95.716;2024-02-23T03:49:38;15.03;;;11.47;;
70457;SDS011;57919;56.194;95.716;2024-02-23T03:59:40;20.07;;;13.20;;
70457;SDS011;57919;56.194;95.716;2024-02-23T04:09:53;6.32;;;5.70;;
70457;SDS011;57919;56.194;95.716;2024-02-23T04:19:56;13.05;;;5.90;;
70457;SDS011;57919;56.194;95.716;2024-02-23T04:29:58;15.97;;;8.87;;
70457;SDS011;57919;56.194;95.716;2024-02-23T04:40:01;14.60;;;8.93;;
70457;SDS011;57919;56.194;95.716;2024-02-23T04:50:05;7.53;;;4.95;;
70457;SDS011;57919;56.194;95.716;2024-02-23T05:00:08;13.83;;;10.13;;
70457;SDS011;57919;56.194;95.716;2024-02-23T05:10:10;48.87;;;21.27;;
70457;SDS011;57919;56.194;95.716;2024-02-23T05:20:13;26.85;;;13.05;;
70457;SDS011;57919;56.194;95.716;2024-02-23T05:30:15;23.60;;;17.00;;
70457;SDS011;57919;56.194;95.716;2024-02-23T05:40:17;28.33;;;15.10;;
70457;SDS011;57919;56.194;95.716;2024-02-23T05:50:19;94.07;;;35.35;;
70457;SDS011;57919;56.194;95.716;2024-02-23T06:00:21;23.17;;;13.27;;
70457;SDS011;57919;56.194;95.716;2024-02-23T06:10:23;98.27;;;33.47;;
70457;SDS011;57919;56.194;95.716;2024-02-23T06:20:26;25.63;;;15.37;;
70457;SDS011;57919;56.194;95.716;2024-02-23T06:30:27;27.48;;;17.92;;
70457;SDS011;57919;56.194;95.716;2024-02-23T06:40:29;52.63;;;22.63;;
70457;SDS011;57919;56.194;95.716;2024-02-23T06:50:31;27.00;;;10.97;;
70457;SDS011;57919;56.194;95.716;2024-02-23T07:00:33;9.40;;;5.90;;
70457;SDS011;57919;56.194;95.716;2024-02-23T07:10:36;57.40;;;21.87;;
70457;SDS011;57919;56.194;95.716;2024-02-23T07:20:37;25.57;;;11.10;;
70457;SDS011;57919;56.194;95.716;2024-02-23T07:30:39;9.85;;;4.75;;
70457;SDS011;57919;56.194;95.716;2024-02-23T07:40:41;24.83;;;10.27;;
70457;SDS011;57919;56.194;95.716;2024-02-23T07:50:43;10.93;;;7.83;;
70457;SDS011;57919;56.194;95.716;2024-02-23T08:00:45;15.73;;;7.07;;
70457;SDS011;57919;56.194;95.716;2024-02-23T08:10:47;9.13;;;6.38;;
70457;SDS011;57919;56.194;95.716;2024-02-23T08:20:49;24.87;;;13.23;;
70457;SDS011;57919;56.194;95.716;2024-02-23T08:30:51;9.03;;;5.10;;
70457;SDS011;57919;56.194;95.716;2024-02-23T08:40:54;15.88;;;9.82;;
70457;SDS011;57919;56.194;95.716;2024-02-23T08:50:56;15.50;;;10.33;;
70457;SDS011;57919;56.194;95.716;2024-02-23T09:00:58;35.40;;;13.00;;
70457;SDS011;57919;56.194;95.716;2024-02-23T09:11:00;15.18;;;9.82;;
70457;SDS011;57919;56.194;95.716;2024-02-23T09:21:02;16.35;;;6.75;;
70457;SDS011;57919;56.194;95.716;2024-02-23T09:31:04;31.73;;;15.50;;
70457;SDS011;57919;56.194;95.716;2024-02-23T09:41:09;29.87;;;12.77;;
70457;SDS011;57919;56.194;95.716;2024-02-23T09:51:19;28.17;;;11.30;;
70457;SDS011;57919;56.194;95.716;2024-02-23T10:01:27;18.77;;;7.63;;
70457;SDS011;57919;56.194;95.716;2024-02-23T10:11:32;11.37;;;5.33;;
70457;SDS011;57919;56.194;95.716;2024-02-23T10:21:34;25.27;;;10.93;;
70457;SDS011;57919;56.194;95.716;2024-02-23T10:31:36;23.10;;;10.70;;
70457;SDS011;57919;56.194;95.716;2024-02-23T10:41:39;19.30;;;10.33;;
70457;SDS011;57919;56.194;95.716;2024-02-23T10:51:48;59.03;;;27.83;;
70457;SDS011;57919;56.194;95.716;2024-02-23T11:01:53;69.10;;;30.02;;
70457;SDS011;57919;56.194;95.716;2024-02-23T11:12:03;64.57;;;37.87;;
70457;SDS011;57919;56.194;95.716;2024-02-23T11:22:11;105.50;;;50.43;;
70457;SDS011;57919;56.194;95.716;2024-02-23T11:32:14;138.90;;;67.65;;
70457;SDS011;57919;56.194;95.716;2024-02-23T11:42:19;78.10;;;51.17;;
70457;SDS011;57919;56.194;95.716;2024-02-23T11:52:22;44.87;;;26.63;;
70457;SDS011;57919;56.194;95.716;2024-02-23T12:02:24;54.03;;;34.50;;
70457;SDS011;57919;56.194;95.716;2024-02-23T12:12:26;51.23;;;31.37;;
70457;SDS011;57919;56.194;95.716;2024-02-23T12:22:29;48.47;;;31.50;;
70457;SDS011;57919;56.194;95.716;2024-02-23T12:32:31;17.52;;;11.68;;
70457;SDS011;57919;56.194;95.716;2024-02-23T12:42:33;39.80;;;17.27;;
70457;SDS011;57919;56.194;95.716;2024-02-23T12:52:35;16.33;;;11.77;;
70457;SDS011;57919;56.194;95.716;2024-02-23T13:02:37;17.87;;;10.53;;
70457;SDS011;57919;56.194;95.716;2024-02-23T13:12:39;19.70;;;9.95;;
70457;SDS011;57919;56.194;95.716;2024-02-23T13:22:41;36.33;;;23.13;;
70457;SDS011;57919;56.194;95.716;2024-02-23T13:32:43;49.83;;;24.73;;
70457;SDS011;57919;56.194;95.716;2024-02-23T13:42:46;18.73;;;15.25;;
70457;SDS011;57919;56.194;95.716;2024-02-23T13:52:51;15.33;;;8.67;;
70457;SDS011;57919;56.194;95.716;2024-02-23T14:02:53;13.83;;;10.50;;
70457;SDS011;57919;56.194;95.716;2024-02-23T14:12:57;27.67;;;15.07;;
70457;SDS011;57919;56.194;95.716;2024-02-23T14:23:00;14.88;;;4.32;;
70457;SDS011;57919;56.194;95.716;2024-02-23T14:33:03;6.80;;;2.30;;
70457;SDS011;57919;56.194;95.716;2024-02-23T14:43:05;5.37;;;3.87;;
70457;SDS011;57919;56.194;95.716;2024-02-23T14:53:07;6.03;;;4.00;;
70457;SDS011;57919;56.194;95.716;2024-02-23T15:03:09;29.17;;;14.27;;
70457;SDS011;57919;56.194;95.716;2024-02-23T15:13:12;3.47;;;2.27;;
70457;SDS011;57919;56.194;95.716;2024-02-23T15:23:14;16.20;;;12.40;;
70457;SDS011;57919;56.194;95.716;2024-02-23T15:33:16;4.50;;;3.83;;
70457;SDS011;57919;56.194;95.716;2024-02-23T15:43:20;17.43;;;6.83;;
70457;SDS011;57919;56.194;95.716;2024-02-23T15:53:23;15.00;;;6.90;;
70457;SDS011;57919;56.194;95.716;2024-02-23T16:03:25;10.52;;;5.38;;
70457;SDS011;57919;56.194;95.716;2024-02-23T16:13:28;13.70;;;5.77;;
70457;SDS011;57919;56.194;95.716;2024-02-23T16:23:30;5.80;;;2.87;;
70457;SDS011;57919;56.194;95.716;2024-02-23T16:33:32;18.85;;;8.98;;
70457;SDS011;57919;56.194;95.716;2024-02-23T16:43:34;10.73;;;3.20;;
70457;SDS011;57919;56.194;95.716;2024-02-23T16:53:36;35.30;;;13.23;;
70457;SDS011;57919;56.194;95.716;2024-02-23T17:03:38;11.45;;;5.32;;
70457;SDS011;57919;56.194;95.716;2024-02-23T17:13:41;5.63;;;3.73;;
70457;SDS011;57919;56.194;95.716;2024-02-23T17:23:44;5.57;;;5.10;;
70457;SDS011;57919;56.194;95.716;2024-02-23T17:33:46;9.10;;;8.15;;
70457;SDS011;57919;56.194;95.716;2024-02-23T17:43:49;16.92;;;15.23;;
70457;SDS011;57919;56.194;95.716;2024-02-23T17:53:51;10.73;;;5.60;;
70457;SDS011;57919;56.194;95.716;2024-02-23T18:03:53;7.40;;;5.87;;
70457;SDS011;57919;56.194;95.716;2024-02-23T18:13:55;15.35;;;13.80;;
70457;SDS011;57919;56.194;95.716;2024-02-23T18:23:58;13.80;;;12.37;;
70457;SDS011;57919;56.194;95.716;2024-02-23T18:33:59;54.10;;;29.93;;
70457;SDS011;57919;56.194;95.716;2024-02-23T18:44:03;8.63;;;6.03;;
70457;SDS011;57919;56.194;95.716;2024-02-23T18:54:12;8.30;;;5.33;;
70457;SDS011;57919;56.194;95.716;2024-02-23T19:04:14;18.10;;;8.10;;
70457;SDS011;57919;56.194;95.716;2024-02-23T19:14:16;12.73;;;8.93;;
70457;SDS011;57919;56.194;95.716;2024-02-23T19:24:18;16.38;;;7.15;;
70457;SDS011;57919;56.194;95.716;2024-02-23T19:34:20;13.20;;;6.57;;
70457;SDS011;57919;56.194;95.716;2024-02-23T19:44:23;7.03;;;5.60;;
70457;SDS011;57919;56.194;95.716;2024-02-23T19:54:25;13.13;;;7.03;;
70457;SDS011;57919;56.194;95.716;2024-02-23T20:04:30;2.07;;;1.57;;
70457;SDS011;57919;56.194;95.716;2024-02-23T20:14:33;8.60;;;3.53;;
70457;SDS011;57919;56.194;95.716;2024-02-23T20:24:35;11.68;;;6.10;;
70457;SDS011;57919;56.194;95.716;2024-02-23T20:34:37;7.80;;;4.93;;
70457;SDS011;57919;56.194;95.716;2024-02-23T20:44:40;4.00;;;2.70;;
70457;SDS011;57919;56.194;95.716;2024-02-23T20:54:41;15.20;;;8.57;;
70457;SDS011;57919;56.194;95.716;2024-02-23T21:04:48;15.60;;;4.97;;
70457;SDS011;57919;56.194;95.716;2024-02-23T21:14:51;5.93;;;3.27;;
70457;SDS011;57919;56.194;95.716;2024-02-23T21:24:53;7.67;;;2.73;;
70457;SDS011;57919;56.194;95.716;2024-02-23T21:34:55;7.93;;;3.13;;
70457;SDS011;57919;56.194;95.716;2024-02-23T21:44:57;1.33;;;0.83;;
70457;SDS011;57919;56.194;95.716;2024-02-23T21:54:59;1.40;;;0.90;;
70457;SDS011;57919;56.194;95.716;2024-02-23T22:05:01;2.85;;;2.08;;
70457;SDS011;57919;56.194;95.716;2024-02-23T22:15:05;2.57;;;1.30;;
70457;SDS011;57919;56.194;95.716;2024-02-23T22:25:07;8.50;;;6.20;;
70457;SDS011;57919;56.194;95.716;2024-02-23T22:35:11;4.45;;;4.03;;
70457;SDS011;57919;56.194;95.716;2024-02-23T22:45:14;14.75;;;7.03;;
70457;SDS011;57919;56.194;95.716;2024-02-23T22:55:16;4.13;;;2.30;;
70457;SDS011;57919;56.194;95.716;2024-02-23T23:05:19;20.80;;;8.80;;
70457;SDS011;57919;56.194;95.716;2024-02-23T23:15:25;5.90;;;1.95;;
70457;SDS011;57919;56.194;95.716;2024-02-23T23:25:27;2.90;;;2.07;;
70457;SDS011;57919;56.194;95.716;2024-02-23T23:35:29;4.80;;;4.00;;
70457;SDS011;57919;56.194;95.716;2024-02-23T23:45:31;17.95;;;10.00;;
70457;SDS011;57919;56.194;95.716;2024-02-23T23:55:33;6.40;;;4.50;;
